Decoded Metar for KLND (LANDER in WY, USA) (IATA:LND) | Meteo·Mobile Aviation Weather
aviador You're here:

KLND Decoded Metar

LANDER in WY, USA
Report Time2018-10-20 03:53:00
UTC Time2018-10-20 04:05:08
Flight Rules vfr VFR
Wind210° at 04 kt
W.Decomp.*RWY 21: 3.9 kt HW 1 kt LCW
W.Rank210° ranks 23
Current wind is below 210° avg. (7.6)
Visibility9999 m
Phenomena:N/A
Clouds:N/A
Expected CloudBase > 4,400 ft AGL from Temp-Dew spread
CeilingNone
Temp08°C (ISA +4)
Dew Point-3°C (46% RH)
AAT4.2°C
QNH1028 hPa
Density Alt5,610 ft
Elevation5,558 ft
Report Wrong Elevation
Raw Report
KLND 200353Z AUTO 21004KT 10SM CLR 08/M03 A3037 RMK AO2 SLP265
T00781033 $=

Extra information for KLND:More info

Metar Taf Metar & Taf Last 4 Metars F.Rules Stats Wind Profile Meteogram Temp Stats Airport Information Weather charts Add Link Nearby VenuesMetar ALERT Operation Metar Decoded Social comments

AIRNAV info for KLND